createdAt,value
2017-08-23T00:00:31.363Z,81.4
2017-08-23T00:01:32.748Z,81.3
2017-08-23T00:02:34.141Z,81.3
2017-08-23T00:03:35.504Z,81.4
2017-08-23T00:04:36.912Z,81.3
2017-08-23T00:05:38.283Z,81.3
2017-08-23T00:06:39.664Z,81.3
2017-08-23T00:07:41.040Z,81.2
2017-08-23T00:08:42.437Z,81.6
2017-08-23T00:09:43.808Z,81.6
2017-08-23T00:10:45.187Z,81.4
2017-08-23T00:11:46.565Z,81.6
2017-08-23T00:12:47.947Z,81.8
2017-08-23T00:13:49.325Z,81.2
2017-08-23T00:14:50.703Z,81.4
2017-08-23T00:15:52.094Z,81.1
2017-08-23T00:16:53.468Z,81.3
2017-08-23T00:17:54.844Z,81.7
2017-08-23T00:18:56.226Z,81.6
2017-08-23T00:19:57.599Z,81.5
2017-08-23T00:20:58.976Z,81.8
2017-08-23T00:22:00.358Z,82.1
2017-08-23T00:23:01.736Z,81.9
2017-08-23T00:24:03.122Z,82.0
2017-08-23T00:25:04.498Z,82.2
2017-08-23T00:26:05.881Z,82.2
2017-08-23T00:27:07.261Z,82.2
2017-08-23T00:28:08.639Z,81.5
2017-08-23T00:29:10.012Z,82.3
2017-08-23T00:30:11.389Z,81.8
2017-08-23T00:31:12.796Z,81.7
2017-08-23T00:32:14.180Z,81.9
2017-08-23T00:33:15.552Z,81.6
2017-08-23T00:34:16.942Z,81.4
2017-08-23T00:35:18.315Z,81.5
2017-08-23T00:36:19.696Z,81.5
2017-08-23T00:37:21.076Z,81.8
2017-08-23T00:38:22.456Z,81.8
2017-08-23T00:39:23.836Z,81.8
2017-08-23T00:40:25.215Z,81.9
2017-08-23T00:41:26.585Z,82.4
2017-08-23T00:42:27.963Z,82.5
2017-08-23T00:43:29.342Z,82.5
2017-08-23T00:44:30.720Z,82.6
2017-08-23T00:45:32.097Z,81.8
2017-08-23T00:46:33.476Z,82.5
2017-08-23T00:47:34.854Z,81.9
2017-08-23T00:48:36.229Z,82.2
2017-08-23T00:49:37.615Z,82.1
2017-08-23T00:50:38.992Z,82.3
2017-08-23T00:51:40.367Z,82.2
2017-08-23T00:52:41.761Z,81.9
2017-08-23T00:53:43.135Z,82.2
2017-08-23T00:54:44.503Z,82.0
2017-08-23T00:55:45.876Z,81.7
2017-08-23T00:56:47.256Z,82.1
2017-08-23T00:57:48.638Z,82.6
2017-08-23T00:58:50.018Z,82.5
2017-08-23T00:59:51.395Z,82.3
2017-08-23T01:00:52.782Z,82.5
2017-08-23T01:01:54.160Z,82.6
2017-08-23T01:02:55.537Z,82.2
2017-08-23T01:03:56.927Z,82.3
2017-08-23T01:04:58.292Z,82.5
2017-08-23T01:05:59.670Z,82.4
2017-08-23T01:07:01.049Z,83.0
2017-08-23T01:08:02.435Z,82.8
2017-08-23T01:09:03.813Z,83.3
2017-08-23T01:10:05.191Z,83.1
2017-08-23T01:11:06.563Z,83.2
2017-08-23T01:12:07.944Z,82.7
2017-08-23T01:13:09.314Z,83.1
2017-08-23T01:14:10.690Z,83.4
2017-08-23T01:15:12.089Z,83.0
2017-08-23T01:16:13.469Z,83.2
2017-08-23T01:17:14.845Z,83.2
2017-08-23T01:18:16.222Z,83.0
2017-08-23T01:19:17.596Z,83.0
2017-08-23T01:20:18.975Z,83.4
2017-08-23T01:21:20.348Z,83.2
2017-08-23T01:22:21.743Z,83.2
2017-08-23T01:23:23.110Z,83.0
2017-08-23T01:24:24.486Z,83.3
2017-08-23T01:25:25.865Z,83.2
2017-08-23T01:26:27.251Z,83.4
2017-08-23T01:27:28.613Z,83.2
2017-08-23T01:28:29.990Z,83.2
2017-08-23T01:29:31.367Z,83.5
2017-08-23T01:30:32.749Z,83.3
2017-08-23T01:31:34.125Z,83.6
2017-08-23T01:32:35.504Z,83.6
2017-08-23T01:33:36.868Z,83.6
2017-08-23T01:34:38.265Z,83.4
2017-08-23T01:35:39.640Z,83.4
2017-08-23T01:36:41.017Z,83.4
2017-08-23T01:37:42.398Z,83.5
2017-08-23T01:38:43.772Z,83.7
2017-08-23T01:39:45.145Z,83.4
2017-08-23T01:40:46.523Z,83.6
2017-08-23T01:41:47.910Z,83.7
2017-08-23T01:42:49.289Z,83.5
2017-08-23T01:43:50.667Z,83.5
2017-08-23T01:44:52.042Z,83.7
2017-08-23T01:45:53.420Z,83.4
2017-08-23T01:46:54.794Z,83.7
2017-08-23T01:47:56.193Z,83.7
2017-08-23T01:48:57.572Z,83.5
2017-08-23T01:49:58.945Z,83.3
2017-08-23T01:51:00.324Z,83.7
2017-08-23T01:52:01.707Z,83.7
2017-08-23T01:53:03.076Z,83.7
2017-08-23T01:54:04.455Z,83.7
2017-08-23T01:55:05.830Z,83.4
2017-08-23T01:56:07.210Z,83.7
2017-08-23T01:57:08.589Z,83.5
2017-08-23T01:58:09.968Z,83.6
2017-08-23T01:59:11.340Z,83.4
2017-08-23T02:00:12.720Z,83.3
2017-08-23T02:01:14.094Z,83.7
2017-08-23T02:02:15.469Z,83.6
2017-08-23T02:03:16.846Z,83.6
2017-08-23T02:04:18.222Z,83.9
2017-08-23T02:05:19.601Z,83.7
2017-08-23T02:06:20.980Z,84.1
2017-08-23T02:07:22.353Z,83.8
2017-08-23T02:08:23.727Z,83.8
2017-08-23T02:09:25.103Z,83.3
2017-08-23T02:10:26.486Z,83.6
2017-08-23T02:11:27.862Z,83.1
2017-08-23T02:12:29.239Z,83.5
2017-08-23T02:13:30.615Z,84.2
2017-08-23T02:14:31.997Z,83.7
2017-08-23T02:15:33.372Z,83.5
2017-08-23T02:16:34.746Z,83.9
2017-08-23T02:17:36.130Z,83.7
2017-08-23T02:18:37.508Z,83.9
2017-08-23T02:19:38.882Z,83.8
2017-08-23T02:20:40.261Z,84.0
2017-08-23T02:21:41.634Z,84.1
2017-08-23T02:22:43.006Z,83.8
2017-08-23T02:23:44.386Z,84.3
2017-08-23T02:24:45.763Z,84.1
2017-08-23T02:25:47.138Z,84.1
2017-08-23T02:26:48.520Z,84.3
2017-08-23T02:27:49.894Z,84.1
2017-08-23T02:28:51.264Z,84.1
2017-08-23T02:29:52.648Z,83.9
2017-08-23T02:30:54.023Z,84.2
2017-08-23T02:31:55.400Z,84.2
2017-08-23T02:32:56.777Z,84.3
2017-08-23T02:33:58.153Z,84.4
2017-08-23T02:34:59.528Z,84.9
2017-08-23T02:36:00.903Z,84.9
2017-08-23T02:37:02.277Z,84.7
2017-08-23T02:38:03.655Z,84.7
2017-08-23T02:39:05.030Z,84.4
2017-08-23T02:40:06.408Z,84.8
2017-08-23T02:41:07.784Z,84.5
2017-08-23T02:42:09.162Z,84.3
2017-08-23T02:43:10.541Z,84.4
2017-08-23T02:44:11.919Z,84.2
2017-08-23T02:45:13.303Z,84.0
2017-08-23T02:46:14.672Z,84.0
2017-08-23T02:47:16.046Z,84.8
2017-08-23T02:48:17.433Z,84.3
2017-08-23T02:49:18.802Z,84.4
2017-08-23T02:50:20.175Z,84.1
2017-08-23T02:51:21.553Z,84.3
2017-08-23T02:52:22.932Z,84.8
2017-08-23T02:53:24.306Z,84.4
2017-08-23T02:54:25.683Z,84.4
2017-08-23T02:55:27.064Z,84.9
2017-08-23T02:56:28.440Z,84.7
2017-08-23T02:57:29.817Z,84.8
2017-08-23T02:58:31.211Z,84.5
2017-08-23T02:59:32.592Z,84.5
2017-08-23T03:00:33.962Z,84.9
2017-08-23T03:01:35.337Z,84.7
2017-08-23T03:02:36.729Z,84.4
2017-08-23T03:03:38.105Z,84.4
2017-08-23T03:04:39.479Z,84.4
2017-08-23T03:05:40.855Z,84.7
2017-08-23T03:06:42.241Z,84.8
2017-08-23T03:07:43.618Z,84.9
2017-08-23T03:08:44.994Z,84.4
2017-08-23T03:09:46.371Z,84.9
2017-08-23T03:10:47.748Z,84.9
2017-08-23T03:11:49.121Z,84.8
2017-08-23T03:12:50.492Z,84.8
2017-08-23T03:13:51.880Z,85.0
2017-08-23T03:14:53.254Z,84.6
2017-08-23T03:15:54.630Z,85.4
2017-08-23T03:16:56.010Z,84.7
2017-08-23T03:17:57.385Z,84.9
2017-08-23T03:18:58.758Z,85.8
2017-08-23T03:20:00.135Z,85.9
2017-08-23T03:21:01.544Z,85.4
2017-08-23T03:22:02.884Z,85.4
2017-08-23T03:23:04.267Z,85.4
2017-08-23T03:24:05.642Z,85.1
2017-08-23T03:25:07.027Z,85.3
2017-08-23T03:26:08.399Z,85.5
2017-08-23T03:27:09.769Z,85.4
2017-08-23T03:28:11.161Z,85.5
2017-08-23T03:29:12.532Z,86.1
2017-08-23T03:30:13.907Z,86.1
2017-08-23T03:31:15.283Z,86.3
2017-08-23T03:32:16.668Z,87.0
2017-08-23T03:33:18.036Z,86.9
2017-08-23T03:34:19.420Z,86.7
2017-08-23T03:35:20.795Z,86.8
2017-08-23T03:36:22.171Z,87.2
2017-08-23T03:37:23.546Z,87.1
2017-08-23T03:38:24.927Z,86.3
2017-08-23T03:39:26.304Z,85.8
2017-08-23T03:40:27.678Z,85.9
2017-08-23T03:41:29.052Z,86.3
2017-08-23T03:42:30.429Z,86.4
2017-08-23T03:43:31.809Z,87.1
2017-08-23T03:44:33.182Z,86.9
2017-08-23T03:45:34.558Z,87.1
2017-08-23T03:46:35.942Z,86.8
2017-08-23T03:47:37.313Z,86.9
2017-08-23T03:48:38.690Z,87.2
2017-08-23T03:49:40.060Z,87.6
2017-08-23T03:50:41.442Z,87.6
2017-08-23T03:51:42.813Z,87.2
2017-08-23T03:52:44.189Z,87.1
2017-08-23T03:53:45.573Z,87.3
2017-08-23T03:54:46.953Z,87.0
2017-08-23T03:55:48.322Z,87.0
2017-08-23T03:56:49.699Z,87.2
2017-08-23T03:57:51.077Z,86.9
2017-08-23T03:58:52.473Z,87.1
2017-08-23T03:59:53.850Z,87.3
2017-08-23T04:00:55.224Z,87.2
2017-08-23T04:01:56.606Z,87.2
2017-08-23T04:02:57.977Z,86.9
2017-08-23T04:03:59.352Z,86.8
2017-08-23T04:05:00.729Z,86.3
2017-08-23T04:06:02.106Z,86.2
2017-08-23T04:07:03.485Z,86.0
2017-08-23T04:08:04.862Z,86.2
2017-08-23T04:09:06.237Z,86.1
2017-08-23T04:10:07.611Z,86.8
2017-08-23T04:11:08.987Z,87.2
2017-08-23T04:12:10.365Z,86.6
2017-08-23T04:13:11.744Z,87.1
2017-08-23T04:14:13.119Z,87.2
2017-08-23T04:15:14.496Z,86.9
2017-08-23T04:16:15.871Z,87.2
2017-08-23T04:17:17.247Z,87.0
2017-08-23T04:18:18.622Z,87.0
2017-08-23T04:19:20.001Z,87.2
2017-08-23T04:20:21.377Z,87.2
2017-08-23T04:21:22.753Z,87.2
2017-08-23T04:22:24.138Z,87.1
2017-08-23T04:23:25.513Z,87.1
2017-08-23T04:24:26.904Z,87.1
2017-08-23T04:25:28.282Z,87.2
2017-08-23T04:26:29.657Z,87.3
2017-08-23T04:27:31.039Z,87.8
2017-08-23T04:28:32.417Z,87.7
2017-08-23T04:29:33.795Z,87.5
2017-08-23T04:30:35.170Z,87.7
2017-08-23T04:31:36.551Z,88.0
2017-08-23T04:32:37.929Z,87.4
2017-08-23T04:33:39.307Z,87.8
2017-08-23T04:34:40.686Z,87.9
2017-08-23T04:35:42.072Z,88.0
2017-08-23T04:36:43.448Z,87.4
2017-08-23T04:37:44.828Z,87.5
2017-08-23T04:38:46.202Z,87.3
2017-08-23T04:39:47.588Z,86.8
2017-08-23T04:40:48.966Z,86.9
2017-08-23T04:41:50.346Z,86.9
2017-08-23T04:42:51.729Z,86.8
2017-08-23T04:43:53.113Z,87.0
2017-08-23T04:44:54.490Z,86.1
2017-08-23T04:45:55.867Z,85.9
2017-08-23T04:46:57.244Z,86.3
2017-08-23T04:47:58.627Z,86.0
2017-08-23T04:49:00.004Z,85.7
2017-08-23T04:50:01.387Z,85.2
2017-08-23T04:51:02.768Z,85.6
2017-08-23T04:52:04.143Z,84.8
2017-08-23T04:53:05.541Z,84.6
2017-08-23T04:54:06.927Z,84.4
2017-08-23T04:55:08.313Z,84.2
2017-08-23T04:56:09.701Z,84.1
2017-08-23T04:57:11.086Z,84.7
2017-08-23T04:58:12.485Z,83.9
2017-08-23T04:59:13.860Z,83.6
2017-08-23T05:00:15.241Z,83.6
2017-08-23T05:01:16.622Z,83.3
2017-08-23T05:02:17.998Z,83.6
2017-08-23T05:03:19.382Z,82.8
2017-08-23T05:04:20.760Z,83.2
2017-08-23T05:05:22.156Z,83.7
2017-08-23T05:06:23.535Z,84.0
2017-08-23T05:07:24.913Z,84.5
2017-08-23T05:08:26.294Z,83.6
2017-08-23T05:09:27.677Z,83.2
2017-08-23T05:10:29.057Z,83.1
2017-08-23T05:11:30.436Z,83.0
2017-08-23T05:12:31.826Z,82.3
2017-08-23T05:13:33.204Z,82.0
2017-08-23T05:14:34.589Z,81.1
2017-08-23T05:15:35.977Z,81.0
2017-08-23T05:16:37.361Z,80.6
2017-08-23T05:17:38.746Z,80.0
2017-08-23T05:18:40.141Z,79.2
2017-08-23T05:19:41.552Z,78.9
2017-08-23T05:20:42.931Z,78.1
2017-08-23T05:21:44.315Z,78.2
2017-08-23T05:22:45.714Z,77.3
2017-08-23T05:23:47.093Z,77.2
2017-08-23T05:24:48.508Z,76.8
2017-08-23T05:25:49.897Z,77.2
2017-08-23T05:26:51.285Z,76.8
2017-08-23T05:27:52.665Z,76.5
2017-08-23T05:28:54.047Z,75.4
2017-08-23T05:29:55.429Z,75.5
2017-08-23T05:30:56.817Z,75.0
2017-08-23T05:31:58.206Z,74.5
2017-08-23T05:32:59.606Z,74.1
2017-08-23T05:34:00.995Z,73.6
2017-08-23T05:35:02.392Z,73.7
2017-08-23T05:36:03.924Z,73.0
2017-08-23T05:37:05.309Z,72.2
2017-08-23T05:38:06.713Z,72.0
2017-08-23T05:39:08.087Z,71.8
2017-08-23T05:40:09.475Z,71.7
2017-08-23T05:41:10.860Z,71.7
2017-08-23T05:42:12.490Z,71.0
2017-08-23T05:43:13.860Z,70.9
2017-08-23T05:44:15.258Z,71.0
2017-08-23T05:45:16.646Z,70.8
2017-08-23T05:46:18.028Z,70.5
2017-08-23T05:47:19.415Z,70.8
2017-08-23T05:48:20.801Z,70.0
2017-08-23T05:49:22.193Z,70.1
2017-08-23T05:50:23.584Z,69.5
2017-08-23T05:51:24.960Z,69.6
2017-08-23T05:52:26.355Z,70.1
2017-08-23T05:53:27.744Z,69.9
2017-08-23T05:54:29.146Z,69.6
2017-08-23T05:55:30.651Z,69.0
2017-08-23T05:56:32.048Z,68.8
2017-08-23T05:57:33.439Z,68.7
2017-08-23T05:58:34.845Z,68.2
2017-08-23T05:59:36.258Z,68.1
2017-08-23T06:00:37.660Z,67.6
2017-08-23T06:01:39.057Z,67.2
2017-08-23T06:02:40.445Z,67.1
2017-08-23T06:03:41.830Z,67.1
2017-08-23T06:04:43.213Z,66.8
2017-08-23T06:05:44.595Z,67.0
2017-08-23T06:06:45.981Z,66.3
2017-08-23T06:07:47.376Z,66.8
2017-08-23T06:08:48.760Z,66.4
2017-08-23T06:09:50.150Z,66.4
2017-08-23T06:10:51.539Z,65.4
2017-08-23T06:11:52.917Z,66.4
2017-08-23T06:12:54.307Z,66.5
2017-08-23T06:13:55.689Z,67.2
2017-08-23T06:14:57.090Z,66.5
2017-08-23T06:15:58.478Z,66.7
2017-08-23T06:16:59.866Z,66.3
2017-08-23T06:18:01.248Z,65.8
2017-08-23T06:19:02.637Z,66.3
2017-08-23T06:20:04.021Z,66.7
2017-08-23T06:21:05.408Z,66.0
2017-08-23T06:22:06.821Z,66.0
2017-08-23T06:23:08.192Z,66.2
2017-08-23T06:24:09.583Z,65.5
2017-08-23T06:25:10.974Z,65.3
2017-08-23T06:26:12.384Z,65.2
2017-08-23T06:27:13.780Z,64.6
2017-08-23T06:28:15.183Z,64.5
2017-08-23T06:29:16.575Z,64.7
2017-08-23T06:30:17.964Z,64.1
2017-08-23T06:31:19.357Z,63.4
2017-08-23T06:32:20.741Z,63.5
2017-08-23T06:33:22.135Z,63.3
2017-08-23T06:34:23.518Z,63.1
2017-08-23T06:35:24.908Z,62.4
2017-08-23T06:36:26.295Z,62.0
2017-08-23T06:37:27.694Z,62.3
2017-08-23T06:38:29.075Z,61.7
2017-08-23T06:39:30.464Z,60.3
2017-08-23T06:40:31.854Z,60.7
2017-08-23T06:41:33.241Z,62.3
2017-08-23T06:42:34.628Z,62.2
2017-08-23T06:43:36.018Z,62.3
2017-08-23T06:44:37.414Z,61.6
2017-08-23T06:45:38.806Z,61.5
2017-08-23T06:46:40.195Z,60.9
2017-08-23T06:47:41.582Z,59.5
2017-08-23T06:48:42.980Z,58.3
2017-08-23T06:49:44.373Z,58.5
2017-08-23T06:50:45.756Z,57.4
2017-08-23T06:51:47.148Z,57.7
2017-08-23T06:52:48.543Z,56.9
2017-08-23T06:53:49.936Z,57.0
2017-08-23T06:54:51.334Z,56.8
2017-08-23T06:55:52.729Z,56.1
2017-08-23T06:56:54.119Z,56.2
2017-08-23T06:57:55.515Z,55.5
2017-08-23T06:58:56.910Z,56.2
2017-08-23T06:59:58.301Z,56.3
2017-08-23T07:00:59.696Z,56.2
2017-08-23T07:02:01.079Z,56.1
2017-08-23T07:03:02.493Z,55.1
2017-08-23T07:04:03.883Z,55.7
2017-08-23T07:05:05.292Z,56.1
2017-08-23T07:06:06.682Z,56.0
2017-08-23T07:07:08.092Z,54.8
2017-08-23T07:08:09.478Z,54.2
2017-08-23T07:09:10.874Z,53.7
2017-08-23T07:10:12.288Z,53.6
2017-08-23T07:11:13.661Z,52.7
2017-08-23T07:12:15.051Z,52.3
2017-08-23T07:13:16.444Z,52.2
2017-08-23T07:14:17.839Z,52.6
2017-08-23T07:15:19.231Z,51.8
2017-08-23T07:16:20.621Z,51.4
2017-08-23T07:17:22.015Z,51.5
2017-08-23T07:18:23.407Z,51.7
2017-08-23T07:19:24.805Z,50.7
2017-08-23T07:20:26.198Z,51.5
2017-08-23T07:21:27.605Z,51.6
2017-08-23T07:22:29.003Z,50.8
2017-08-23T07:23:30.393Z,50.8
2017-08-23T07:24:31.786Z,49.9
2017-08-23T07:25:33.180Z,49.4
2017-08-23T07:26:34.573Z,50.1
2017-08-23T07:27:35.974Z,49.6
2017-08-23T07:28:37.369Z,48.0
2017-08-23T07:29:38.762Z,48.4
2017-08-23T07:30:40.156Z,48.2
2017-08-23T07:31:41.548Z,48.5
2017-08-23T07:32:42.946Z,47.4
2017-08-23T07:33:44.342Z,47.6
2017-08-23T07:34:45.739Z,48.7
2017-08-23T07:35:47.154Z,47.3
2017-08-23T07:36:48.541Z,48.3
2017-08-23T07:37:49.932Z,47.4
2017-08-23T07:38:51.327Z,46.6
2017-08-23T07:39:52.733Z,46.0
2017-08-23T07:40:54.129Z,47.1
2017-08-23T07:41:55.534Z,47.0
2017-08-23T07:42:56.942Z,46.8
2017-08-23T07:43:58.340Z,46.7
2017-08-23T07:44:59.734Z,45.9
2017-08-23T07:46:01.129Z,45.6
2017-08-23T07:47:02.532Z,45.5
2017-08-23T07:48:03.933Z,44.4
2017-08-23T07:49:05.340Z,46.2
2017-08-23T07:50:06.741Z,46.1
2017-08-23T07:51:08.148Z,44.8
2017-08-23T07:52:09.541Z,44.7
2017-08-23T07:53:11.952Z,44.4
2017-08-23T07:54:13.280Z,42.8
2017-08-23T07:55:14.680Z,43.2
2017-08-23T07:56:16.085Z,44.4
2017-08-23T07:57:17.501Z,43.5
2017-08-23T07:58:18.900Z,43.7
2017-08-23T07:59:20.293Z,44.1
2017-08-23T08:00:21.686Z,45.9
2017-08-23T08:01:23.105Z,45.2
2017-08-23T08:02:24.507Z,43.3
2017-08-23T08:03:25.908Z,42.4
2017-08-23T08:04:27.326Z,43.4
2017-08-23T08:05:28.725Z,43.4
2017-08-23T08:06:30.183Z,42.2
2017-08-23T08:07:31.581Z,42.9
2017-08-23T08:08:32.985Z,42.1
2017-08-23T08:09:34.395Z,41.5
2017-08-23T08:10:35.793Z,40.1
2017-08-23T08:11:37.192Z,40.5
2017-08-23T08:12:38.585Z,40.5
2017-08-23T08:13:39.983Z,40.3
2017-08-23T08:14:41.388Z,39.0
2017-08-23T08:15:42.794Z,39.5
2017-08-23T08:16:44.192Z,38.6
2017-08-23T08:17:45.592Z,38.5
2017-08-23T08:18:47.001Z,39.2
2017-08-23T08:19:48.399Z,38.4
2017-08-23T08:20:49.802Z,38.4
2017-08-23T08:21:51.410Z,38.7
2017-08-23T08:22:53.214Z,37.9
2017-08-23T08:23:54.623Z,37.4
2017-08-23T08:24:56.028Z,38.1
2017-08-23T08:25:57.457Z,37.9
2017-08-23T08:27:39.851Z,38.6
2017-08-23T08:28:41.247Z,38.6
2017-08-23T08:29:42.645Z,37.9
2017-08-23T08:30:44.042Z,37.7
2017-08-23T08:31:45.438Z,38.2
2017-08-23T08:32:46.838Z,37.8
2017-08-23T08:33:48.236Z,37.9
2017-08-23T08:34:49.635Z,36.7
2017-08-23T08:35:51.029Z,37.2
2017-08-23T08:36:52.430Z,36.9
2017-08-23T08:37:53.828Z,36.6
2017-08-23T08:38:55.224Z,36.4
2017-08-23T08:39:56.624Z,35.7
2017-08-23T08:40:58.022Z,35.5
2017-08-23T08:41:59.426Z,35.4
2017-08-23T08:43:41.817Z,36.4
2017-08-23T08:44:43.212Z,36.1
2017-08-23T08:45:44.610Z,35.8
2017-08-23T08:46:46.008Z,35.0
2017-08-23T08:47:47.403Z,35.4
2017-08-23T08:48:48.816Z,33.4
2017-08-23T08:49:50.218Z,31.8
2017-08-23T08:50:51.620Z,30.9
2017-08-23T08:51:53.048Z,31.0
2017-08-23T08:52:54.444Z,31.5
2017-08-23T08:53:55.842Z,30.0
2017-08-23T08:54:57.238Z,30.8
2017-08-23T08:55:58.638Z,30.6
2017-08-23T08:57:00.036Z,32.2
2017-08-23T08:58:01.436Z,29.2
2017-08-23T08:59:02.840Z,29.4
2017-08-23T09:00:04.232Z,30.0
2017-08-23T09:01:05.632Z,29.9
2017-08-23T09:02:07.037Z,30.6
2017-08-23T09:03:08.432Z,30.0
2017-08-23T09:04:09.832Z,30.5
2017-08-23T09:05:11.235Z,30.3
2017-08-23T09:06:12.644Z,28.1
2017-08-23T09:07:14.029Z,28.0
2017-08-23T09:08:15.432Z,28.8
2017-08-23T09:09:16.871Z,28.9
2017-08-23T09:10:18.238Z,30.2
2017-08-23T09:11:19.634Z,29.9
2017-08-23T09:12:21.033Z,30.6
2017-08-23T09:13:22.433Z,31.4
2017-08-23T09:15:04.824Z,30.4
2017-08-23T09:16:06.241Z,30.0
2017-08-23T09:17:07.635Z,29.5
2017-08-23T09:18:09.034Z,29.0
2017-08-23T09:19:10.471Z,29.4
2017-08-23T09:20:11.874Z,29.0
2017-08-23T09:21:13.281Z,30.9
2017-08-23T09:22:14.685Z,28.8
2017-08-23T09:23:16.079Z,28.4
2017-08-23T09:24:17.481Z,27.8
2017-08-23T09:25:59.874Z,28.1
2017-08-23T09:27:01.275Z,27.7
2017-08-23T09:28:02.676Z,26.3
2017-08-23T09:29:04.075Z,27.3
2017-08-23T09:30:05.474Z,27.7
2017-08-23T09:31:06.876Z,28.7
2017-08-23T09:32:08.284Z,26.6
2017-08-23T09:33:09.689Z,27.4
2017-08-23T09:34:11.088Z,26.4
2017-08-23T09:35:12.485Z,25.9
2017-08-23T09:36:13.888Z,27.0
2017-08-23T09:37:15.289Z,26.5
2017-08-23T09:38:16.691Z,24.9
2017-08-23T09:39:18.095Z,24.1
2017-08-23T09:40:19.498Z,26.5
2017-08-23T09:42:00.901Z,26.5
2017-08-23T09:43:02.300Z,25.6
2017-08-23T09:44:25.312Z,27.4
2017-08-23T09:45:26.719Z,25.1
2017-08-23T09:46:28.112Z,25.3
2017-08-23T09:47:29.515Z,26.0
2017-08-23T09:48:30.919Z,26.0
2017-08-23T09:49:32.320Z,27.5
2017-08-23T09:50:33.733Z,25.7
2017-08-23T09:51:35.133Z,25.6
2017-08-23T09:52:36.536Z,24.9
2017-08-23T09:53:37.965Z,25.7
2017-08-23T09:54:39.368Z,26.3
2017-08-23T09:55:40.777Z,27.5
2017-08-23T09:56:42.182Z,26.5
2017-08-23T09:57:43.588Z,26.8
2017-08-23T09:58:44.994Z,26.2
2017-08-23T09:59:46.400Z,25.3
2017-08-23T10:00:47.801Z,24.7
2017-08-23T10:01:49.203Z,25.6
2017-08-23T10:02:50.610Z,24.0
2017-08-23T10:03:52.015Z,23.1
2017-08-23T10:04:53.432Z,24.0
2017-08-23T10:05:54.837Z,25.4
2017-08-23T10:06:56.249Z,25.0
2017-08-23T10:07:57.684Z,25.3
2017-08-23T10:08:59.075Z,25.6
2017-08-23T10:10:00.485Z,25.0
2017-08-23T10:11:01.893Z,23.9
2017-08-23T10:12:03.308Z,24.2
2017-08-23T10:13:04.721Z,22.7
2017-08-23T10:14:06.146Z,22.6
2017-08-23T10:15:07.568Z,22.0
2017-08-23T10:16:08.971Z,21.5
2017-08-23T10:17:10.380Z,21.4
2017-08-23T10:18:11.784Z,22.5
2017-08-23T10:19:13.210Z,20.5
2017-08-23T10:20:14.625Z,21.8
2017-08-23T10:21:16.027Z,20.7
2017-08-23T10:22:17.429Z,22.0
2017-08-23T10:23:18.841Z,22.8
2017-08-23T10:24:20.252Z,20.3
2017-08-23T10:25:21.680Z,20.8
2017-08-23T10:26:23.105Z,20.3
2017-08-23T10:27:24.560Z,20.7
2017-08-23T10:28:25.965Z,18.6
2017-08-23T10:30:08.404Z,17.7
2017-08-23T10:31:09.807Z,18.6
2017-08-23T10:32:11.215Z,18.5
2017-08-23T10:33:12.617Z,18.8
2017-08-23T10:34:14.024Z,19.2
2017-08-23T10:35:15.430Z,19.2
2017-08-23T10:36:16.835Z,21.2
2017-08-23T10:37:18.241Z,20.2
2017-08-23T10:38:19.648Z,20.6
2017-08-23T10:39:21.048Z,20.8
2017-08-23T10:40:22.451Z,21.4
2017-08-23T10:41:23.893Z,19.1
2017-08-23T10:42:25.301Z,20.0
2017-08-23T10:43:26.705Z,18.8
2017-08-23T10:44:28.135Z,19.3
2017-08-23T10:45:29.533Z,20.2
2017-08-23T10:46:30.937Z,19.1
2017-08-23T10:47:32.341Z,20.5
2017-08-23T10:48:33.745Z,18.7
2017-08-23T10:49:35.153Z,19.6
2017-08-23T10:50:36.556Z,20.2
2017-08-23T10:51:37.978Z,20.3
2017-08-23T10:52:39.383Z,20.7
2017-08-23T10:53:40.784Z,20.3
2017-08-23T10:54:42.191Z,19.4
2017-08-23T10:55:43.598Z,19.2
2017-08-23T10:56:45.012Z,19.9
2017-08-23T10:57:46.411Z,19.9
2017-08-23T10:58:47.824Z,21.0
2017-08-23T10:59:49.227Z,20.6
2017-08-23T11:00:50.634Z,22.6
2017-08-23T11:01:52.036Z,22.0
2017-08-23T11:02:53.467Z,20.7
2017-08-23T11:03:54.871Z,20.8
2017-08-23T11:04:56.282Z,20.1
2017-08-23T11:05:57.688Z,20.0
2017-08-23T11:06:59.107Z,18.6
2017-08-23T11:08:00.535Z,19.0
2017-08-23T11:09:02.014Z,18.7
2017-08-23T11:10:03.453Z,19.2
2017-08-23T11:11:04.871Z,20.0
2017-08-23T11:12:06.281Z,19.5
2017-08-23T11:13:07.683Z,19.2
2017-08-23T11:14:09.086Z,18.3
2017-08-23T11:15:10.493Z,18.7
2017-08-23T11:16:11.896Z,18.6
2017-08-23T11:17:13.307Z,19.9
2017-08-23T11:18:14.714Z,20.2
2017-08-23T11:19:16.121Z,19.2
2017-08-23T11:20:17.527Z,18.2
2017-08-23T11:21:18.931Z,18.5
2017-08-23T11:22:20.338Z,19.1
2017-08-23T11:23:21.739Z,19.4
2017-08-23T11:24:23.145Z,18.1
2017-08-23T11:25:24.551Z,17.6
2017-08-23T11:26:25.965Z,17.0
2017-08-23T11:27:27.373Z,17.3
2017-08-23T11:28:28.774Z,19.4
2017-08-23T11:29:30.180Z,18.0
2017-08-23T11:30:31.585Z,17.3
2017-08-23T11:31:32.989Z,17.7
2017-08-23T11:32:34.396Z,17.7
2017-08-23T11:33:35.804Z,18.5
2017-08-23T11:34:37.213Z,16.7
2017-08-23T11:35:38.617Z,16.8
2017-08-23T11:36:40.019Z,16.9
2017-08-23T11:37:41.435Z,16.9
2017-08-23T11:38:42.940Z,17.5
2017-08-23T11:39:44.349Z,18.3
2017-08-23T11:40:45.760Z,19.9
2017-08-23T11:41:47.169Z,17.4
2017-08-23T11:42:48.569Z,17.4
2017-08-23T11:43:49.972Z,17.0
2017-08-23T11:44:51.378Z,18.3
2017-08-23T11:45:52.783Z,17.4
2017-08-23T11:46:54.190Z,18.7
2017-08-23T11:47:55.599Z,16.7
2017-08-23T11:48:57.013Z,16.8
2017-08-23T11:49:58.494Z,16.2
2017-08-23T11:50:59.902Z,17.5
2017-08-23T11:52:01.310Z,17.5
2017-08-23T11:53:02.718Z,18.7
2017-08-23T11:54:04.127Z,19.4
2017-08-23T11:55:05.546Z,18.5
2017-08-23T11:56:06.955Z,20.3
2017-08-23T11:57:08.366Z,20.1
2017-08-23T11:58:09.766Z,17.7
2017-08-23T11:59:11.173Z,17.3
2017-08-23T12:00:12.577Z,17.7
2017-08-23T12:01:13.984Z,18.5
2017-08-23T12:02:15.439Z,19.0
2017-08-23T12:03:16.755Z,17.7
2017-08-23T12:04:18.157Z,17.7
2017-08-23T12:05:19.565Z,18.1
2017-08-23T12:06:20.971Z,18.7
2017-08-23T12:07:22.380Z,19.1
2017-08-23T12:08:23.788Z,18.4
2017-08-23T12:09:25.195Z,18.3
2017-08-23T12:10:26.605Z,17.2
2017-08-23T12:11:28.007Z,16.9
2017-08-23T12:12:29.415Z,17.0
2017-08-23T12:13:30.819Z,17.4
2017-08-23T12:14:32.230Z,18.6
2017-08-23T12:15:33.632Z,18.3
2017-08-23T12:16:35.041Z,18.4
2017-08-23T12:17:36.446Z,18.8
2017-08-23T12:18:37.872Z,18.3
2017-08-23T12:19:39.260Z,18.7
2017-08-23T12:20:40.656Z,18.4
2017-08-23T12:21:42.074Z,18.4
2017-08-23T12:22:43.480Z,17.9
2017-08-23T12:23:44.891Z,16.1
2017-08-23T12:24:46.295Z,16.1
2017-08-23T12:25:47.706Z,15.1
2017-08-23T12:26:49.108Z,14.4
2017-08-23T12:27:50.513Z,14.7
2017-08-23T12:28:51.920Z,14.9
2017-08-23T12:29:53.328Z,16.7
2017-08-23T12:30:54.738Z,17.0
2017-08-23T12:31:56.149Z,16.2
2017-08-23T12:32:57.554Z,16.3
2017-08-23T12:33:58.961Z,16.0
2017-08-23T12:35:00.373Z,16.5
2017-08-23T12:36:01.782Z,16.3
2017-08-23T12:37:03.199Z,15.5
2017-08-23T12:38:04.607Z,15.9
2017-08-23T12:39:06.020Z,16.2
2017-08-23T12:40:07.429Z,14.8
2017-08-23T12:41:08.826Z,15.2
2017-08-23T12:42:10.233Z,15.9
2017-08-23T12:43:11.639Z,16.3
2017-08-23T12:44:13.049Z,15.8
2017-08-23T12:45:14.458Z,16.1
2017-08-23T12:46:15.885Z,17.3
2017-08-23T12:47:17.270Z,16.9
2017-08-23T12:48:18.674Z,15.9
2017-08-23T12:49:20.082Z,16.9
2017-08-23T12:50:21.487Z,15.6
2017-08-23T12:51:22.893Z,18.4
2017-08-23T12:52:24.309Z,17.5
2017-08-23T12:53:25.716Z,16.2
2017-08-23T12:54:27.125Z,16.0
2017-08-23T12:55:28.533Z,15.7
2017-08-23T12:56:29.939Z,15.9
2017-08-23T12:57:31.346Z,17.0
2017-08-23T12:58:32.754Z,16.6
2017-08-23T12:59:34.168Z,16.2
2017-08-23T13:00:35.575Z,17.6
2017-08-23T13:01:36.981Z,17.2
2017-08-23T13:02:38.389Z,16.9
2017-08-23T13:03:39.794Z,17.2
2017-08-23T13:04:41.203Z,16.1
2017-08-23T13:05:42.613Z,15.8
2017-08-23T13:06:44.021Z,15.1
2017-08-23T13:07:45.430Z,15.0
2017-08-23T13:08:46.835Z,15.5
2017-08-23T13:09:48.300Z,15.6
2017-08-23T13:10:49.605Z,16.4
2017-08-23T13:11:51.015Z,17.6
2017-08-23T13:12:52.418Z,16.2
2017-08-23T13:13:53.834Z,16.0
2017-08-23T13:14:55.242Z,16.7
2017-08-23T13:15:56.648Z,16.2
2017-08-23T13:16:58.060Z,17.3
2017-08-23T13:17:59.462Z,18.7
2017-08-23T13:19:00.873Z,16.0
2017-08-23T13:20:02.272Z,15.8
2017-08-23T13:21:03.689Z,16.2
2017-08-23T13:22:05.093Z,15.5
2017-08-23T13:23:06.499Z,15.9
2017-08-23T13:24:07.905Z,16.9
2017-08-23T13:25:09.319Z,17.2
2017-08-23T13:26:10.720Z,17.6
2017-08-23T13:27:12.128Z,17.4
2017-08-23T13:28:13.543Z,18.5
2017-08-23T13:29:14.949Z,18.7
2017-08-23T13:30:16.355Z,17.5
2017-08-23T13:31:17.760Z,17.4
2017-08-23T13:32:19.178Z,17.7
2017-08-23T13:33:20.583Z,18.7
2017-08-23T13:34:21.994Z,18.7
2017-08-23T13:35:23.407Z,17.2
2017-08-23T13:36:24.816Z,17.5
2017-08-23T13:37:26.215Z,16.2
2017-08-23T13:38:27.623Z,15.8
2017-08-23T13:39:29.028Z,16.8
2017-08-23T13:41:12.433Z,16.5
2017-08-23T13:42:13.844Z,15.9